Inukjuak Airport
CYPH : now visible

Airfield :











YOU CAN JOIN US ON...

 
LOGIN :

Register | Disclaimer

   EN    FR    IT 

 









Legend :    VFR   Marginal VFR   IFR   Intensive IFR   Very Intensive IFR
Visi :
Ceiling :
>= 8 km
>= 3000ft
5 to 8 km
1000 to 3000 ft
1500m to 5 km
500 to 1000 ft
800 to 1500m
200 to 500 ft
< 800m
< 200 ft
Symbols :   Thunderstorms  Fog  Heavy snow  Heavy precipitations  Wind > 20 kt







- Airport Elevation : 83 ft
- IATA code : YPH


CYPH - Inukjuak

CURRENT METAR :
  • 200800Z AUTO 06004KT 9SM BKN180 BKN200 M00/M02 A3004 RMK SLP175

EXPIRED METARs :
  • 200700Z AUTO 05003KT 9SM OVC170 M00/M02 A3004 RMK SLP177
  • 200600Z AUTO 05003KT 9SM CLR 00/M02 A3006 RMK SLP182

TAF TAF CYPH
Valid from the 20 at 06:00 until the 20 at 18:00 UTC


200538Z 2006/2018 VRB03KT P6SM FEW003
PROB30 2006/2012 1SM BR BKN003
FM201200 02006KT P6SM SCT060 BKN250 RMK FCST BASED ON AUTO OBS. NXT FCST BY 201200Z
CZUL FIR / North America



MET'MAP, your aeronautical weather chart ! - Copyright ORBIFLY December 2007 - Disclaimer

ORBIFLY MET'MAP TEAM :

Programming & Development : Alexandra Zaïnal
Concept & Development : Baudouin d'Aumeries
Co-Development & Prog : Marc-Olivier Méhu
Technical & hardware support : Manuel Goepfert

Contact : metmap@orbifly.com




SOURCES & CREDITS :

   NOAA       Earth
Advisory